Terminal Aerodrome Forecast
Issued by NWS Twin Cities, MN

Home | Current Version | Previous Version | Text Only | Print | Product List | Glossary On
Versions: 1 2 3 4 5 6 7 8 9 10 11 12 13 14 15 16 17 18 19 20 21 22 23 24 25 26 27 28 29 30 31 32 33 34 35 36 37 38 39 40 41 42 43 44 45 46 47 48 49 50
000
FTUS43 KMPX 171737
TAFMSP
TAF
KMSP 171737Z 1718/1824 16008KT P6SM VCSH BKN015 OVC100
     FM171830 16010KT P6SM SCT025 BKN200
     FM172300 15012KT P6SM VCTS SCT050CB BKN090
      TEMPO 1802/1806 2SM +TSRA BKN020CB OVC040
     FM180600 17008KT 4SM -SHRA BR SCT015 OVC050
     FM180900 18006KT 6SM BR SCT015 BKN100
     FM181500 24006KT P6SM SCT035 BKN250
     FM182100 21006KT P6SM SCT040 BKN250=

USA.gov is the U.S. government's official web portal to all federal, state and local government web resources and services.